Terminal Aerodrome Forecast
Issued by NWS

Home | Current Version | Previous Version | Text Only | Print | Product List | Glossary On
Versions: 1 2 3 4 5 6 7 8 9 10 11 12 13 14 15 16 17 18 19 20 21 22 23
000
FTUS42 KFFC 240520
TAFPDK
TAF
KPDK 240520Z 2406/2506 07008KT P6SM OVC008
     FM241000 35003KT 4SM -DZ OVC004
     FM241600 34005KT P6SM VCSH BKN008
     FM250000 35002KT P6SM BKN008=

USA.gov is the U.S. government's official web portal to all federal, state and local government web resources and services.